sensor_id;sensor_type;location;lat;lon;timestamp;P1;durP1;ratioP1;P2;durP2;ratioP2
72611;SDS011;60655;52.182;4.474;2023-11-21T00:01:00;10.68;;;3.58;;
72611;SDS011;60655;52.182;4.474;2023-11-21T00:03:02;12.95;;;4.07;;
72611;SDS011;60655;52.182;4.474;2023-11-21T00:07:03;11.93;;;4.20;;
72611;SDS011;60655;52.182;4.474;2023-11-21T00:09:06;11.52;;;4.15;;
72611;SDS011;60655;52.182;4.474;2023-11-21T00:11:09;14.35;;;4.15;;
72611;SDS011;60655;52.182;4.474;2023-11-21T00:13:10;17.02;;;5.13;;
72611;SDS011;60655;52.182;4.474;2023-11-21T00:15:13;15.10;;;4.50;;
72611;SDS011;60655;52.182;4.474;2023-11-21T00:17:14;15.88;;;4.57;;
72611;SDS011;60655;52.182;4.474;2023-11-21T00:21:16;19.17;;;4.20;;
72611;SDS011;60655;52.182;4.474;2023-11-21T00:25:18;9.98;;;3.88;;
72611;SDS011;60655;52.182;4.474;2023-11-21T00:27:20;11.25;;;4.35;;
72611;SDS011;60655;52.182;4.474;2023-11-21T00:29:21;16.63;;;4.18;;
72611;SDS011;60655;52.182;4.474;2023-11-21T00:33:23;11.60;;;3.90;;
72611;SDS011;60655;52.182;4.474;2023-11-21T00:35:25;17.88;;;3.92;;
72611;SDS011;60655;52.182;4.474;2023-11-21T00:39:27;12.68;;;4.22;;
72611;SDS011;60655;52.182;4.474;2023-11-21T00:43:29;12.63;;;3.42;;
72611;SDS011;60655;52.182;4.474;2023-11-21T00:47:30;11.57;;;3.85;;
72611;SDS011;60655;52.182;4.474;2023-11-21T00:49:32;9.70;;;4.22;;
72611;SDS011;60655;52.182;4.474;2023-11-21T00:51:33;13.18;;;4.43;;
72611;SDS011;60655;52.182;4.474;2023-11-21T00:53:34;15.43;;;4.25;;
72611;SDS011;60655;52.182;4.474;2023-11-21T00:55:35;16.35;;;5.20;;
72611;SDS011;60655;52.182;4.474;2023-11-21T00:57:36;14.43;;;4.97;;
72611;SDS011;60655;52.182;4.474;2023-11-21T00:59:38;13.23;;;4.63;;
72611;SDS011;60655;52.182;4.474;2023-11-21T01:03:39;9.32;;;4.07;;
72611;SDS011;60655;52.182;4.474;2023-11-21T01:07:41;9.63;;;3.88;;
72611;SDS011;60655;52.182;4.474;2023-11-21T01:09:42;12.80;;;3.97;;
72611;SDS011;60655;52.182;4.474;2023-11-21T01:11:44;13.20;;;4.70;;
72611;SDS011;60655;52.182;4.474;2023-11-21T01:13:46;12.38;;;4.22;;
72611;SDS011;60655;52.182;4.474;2023-11-21T01:15:48;12.82;;;4.93;;
72611;SDS011;60655;52.182;4.474;2023-11-21T01:19:49;13.75;;;4.30;;
72611;SDS011;60655;52.182;4.474;2023-11-21T01:23:52;14.90;;;4.80;;
72611;SDS011;60655;52.182;4.474;2023-11-21T01:27:56;11.65;;;4.05;;
72611;SDS011;60655;52.182;4.474;2023-11-21T01:31:58;13.95;;;4.53;;
72611;SDS011;60655;52.182;4.474;2023-11-21T01:35:59;12.32;;;4.22;;
72611;SDS011;60655;52.182;4.474;2023-11-21T01:40:01;12.30;;;3.90;;
72611;SDS011;60655;52.182;4.474;2023-11-21T01:42:03;10.77;;;3.40;;
72611;SDS011;60655;52.182;4.474;2023-11-21T01:44:04;9.60;;;4.03;;
72611;SDS011;60655;52.182;4.474;2023-11-21T01:46:08;10.80;;;3.80;;
72611;SDS011;60655;52.182;4.474;2023-11-21T01:48:09;11.30;;;4.18;;
72611;SDS011;60655;52.182;4.474;2023-11-21T01:52:14;10.45;;;3.65;;
72611;SDS011;60655;52.182;4.474;2023-11-21T01:56:17;9.93;;;3.90;;
72611;SDS011;60655;52.182;4.474;2023-11-21T01:58:19;13.10;;;3.72;;
72611;SDS011;60655;52.182;4.474;2023-11-21T02:00:20;9.50;;;3.25;;
72611;SDS011;60655;52.182;4.474;2023-11-21T02:04:22;10.23;;;2.60;;
72611;SDS011;60655;52.182;4.474;2023-11-21T02:08:24;12.40;;;3.28;;
72611;SDS011;60655;52.182;4.474;2023-11-21T02:10:25;9.05;;;3.05;;
72611;SDS011;60655;52.182;4.474;2023-11-21T02:12:26;10.07;;;2.92;;
72611;SDS011;60655;52.182;4.474;2023-11-21T02:14:28;10.48;;;3.08;;
72611;SDS011;60655;52.182;4.474;2023-11-21T02:16:29;11.50;;;3.10;;
72611;SDS011;60655;52.182;4.474;2023-11-21T02:18:31;8.95;;;3.20;;
72611;SDS011;60655;52.182;4.474;2023-11-21T02:22:35;8.60;;;2.55;;
72611;SDS011;60655;52.182;4.474;2023-11-21T02:24:41;8.65;;;2.85;;
72611;SDS011;60655;52.182;4.474;2023-11-21T02:26:43;7.28;;;2.45;;
72611;SDS011;60655;52.182;4.474;2023-11-21T02:30:44;8.90;;;2.35;;
72611;SDS011;60655;52.182;4.474;2023-11-21T02:32:45;5.70;;;2.17;;
72611;SDS011;60655;52.182;4.474;2023-11-21T02:34:46;5.43;;;2.03;;
72611;SDS011;60655;52.182;4.474;2023-11-21T02:38:50;8.23;;;2.20;;
72611;SDS011;60655;52.182;4.474;2023-11-21T02:42:51;5.55;;;1.98;;
72611;SDS011;60655;52.182;4.474;2023-11-21T02:44:52;10.82;;;2.03;;
72611;SDS011;60655;52.182;4.474;2023-11-21T02:48:54;7.35;;;1.80;;
72611;SDS011;60655;52.182;4.474;2023-11-21T02:52:56;6.03;;;1.92;;
72611;SDS011;60655;52.182;4.474;2023-11-21T02:55:03;9.15;;;2.50;;
72611;SDS011;60655;52.182;4.474;2023-11-21T02:57:04;5.13;;;2.08;;
72611;SDS011;60655;52.182;4.474;2023-11-21T02:59:06;6.70;;;1.98;;
72611;SDS011;60655;52.182;4.474;2023-11-21T03:03:08;6.25;;;2.05;;
72611;SDS011;60655;52.182;4.474;2023-11-21T03:07:10;8.93;;;2.17;;
72611;SDS011;60655;52.182;4.474;2023-11-21T03:09:11;6.75;;;2.20;;
72611;SDS011;60655;52.182;4.474;2023-11-21T03:11:15;9.65;;;2.47;;
72611;SDS011;60655;52.182;4.474;2023-11-21T03:13:16;6.03;;;2.20;;
72611;SDS011;60655;52.182;4.474;2023-11-21T03:15:17;8.05;;;2.50;;
72611;SDS011;60655;52.182;4.474;2023-11-21T03:17:18;8.15;;;2.30;;
72611;SDS011;60655;52.182;4.474;2023-11-21T03:19:19;7.80;;;2.65;;
72611;SDS011;60655;52.182;4.474;2023-11-21T03:23:20;6.57;;;2.30;;
72611;SDS011;60655;52.182;4.474;2023-11-21T03:25:21;6.28;;;2.22;;
72611;SDS011;60655;52.182;4.474;2023-11-21T03:27:24;11.57;;;2.53;;
72611;SDS011;60655;52.182;4.474;2023-11-21T03:29:25;7.68;;;2.50;;
72611;SDS011;60655;52.182;4.474;2023-11-21T03:33:27;10.82;;;2.95;;
72611;SDS011;60655;52.182;4.474;2023-11-21T03:35:28;8.25;;;2.55;;
72611;SDS011;60655;52.182;4.474;2023-11-21T03:37:29;7.38;;;2.50;;
72611;SDS011;60655;52.182;4.474;2023-11-21T03:41:31;7.57;;;2.25;;
72611;SDS011;60655;52.182;4.474;2023-11-21T03:43:32;8.40;;;2.95;;
72611;SDS011;60655;52.182;4.474;2023-11-21T03:47:33;7.78;;;2.25;;
72611;SDS011;60655;52.182;4.474;2023-11-21T03:49:34;9.45;;;2.60;;
72611;SDS011;60655;52.182;4.474;2023-11-21T03:51:35;10.57;;;2.60;;
72611;SDS011;60655;52.182;4.474;2023-11-21T03:53:37;9.48;;;3.05;;
72611;SDS011;60655;52.182;4.474;2023-11-21T03:55:38;9.27;;;2.72;;
72611;SDS011;60655;52.182;4.474;2023-11-21T03:59:40;8.93;;;2.67;;
72611;SDS011;60655;52.182;4.474;2023-11-21T04:01:42;9.00;;;2.53;;
72611;SDS011;60655;52.182;4.474;2023-11-21T04:03:42;9.20;;;3.05;;
72611;SDS011;60655;52.182;4.474;2023-11-21T04:05:43;8.75;;;3.15;;
72611;SDS011;60655;52.182;4.474;2023-11-21T04:07:46;11.38;;;3.03;;
72611;SDS011;60655;52.182;4.474;2023-11-21T04:09:47;13.50;;;3.58;;
72611;SDS011;60655;52.182;4.474;2023-11-21T04:11:48;9.82;;;2.80;;
72611;SDS011;60655;52.182;4.474;2023-11-21T04:13:49;9.18;;;2.90;;
72611;SDS011;60655;52.182;4.474;2023-11-21T04:15:50;10.60;;;3.00;;
72611;SDS011;60655;52.182;4.474;2023-11-21T04:17:51;9.10;;;3.13;;
72611;SDS011;60655;52.182;4.474;2023-11-21T04:19:52;9.15;;;3.05;;
72611;SDS011;60655;52.182;4.474;2023-11-21T04:21:53;9.30;;;2.90;;
72611;SDS011;60655;52.182;4.474;2023-11-21T04:23:54;7.82;;;2.83;;
72611;SDS011;60655;52.182;4.474;2023-11-21T04:25:55;7.07;;;2.70;;
72611;SDS011;60655;52.182;4.474;2023-11-21T04:27:57;9.73;;;3.10;;
72611;SDS011;60655;52.182;4.474;2023-11-21T04:29:58;8.90;;;3.10;;
72611;SDS011;60655;52.182;4.474;2023-11-21T04:31:59;9.55;;;3.05;;
72611;SDS011;60655;52.182;4.474;2023-11-21T04:34:00;10.70;;;2.88;;
72611;SDS011;60655;52.182;4.474;2023-11-21T04:36:01;9.52;;;2.80;;
72611;SDS011;60655;52.182;4.474;2023-11-21T04:38:02;8.52;;;3.00;;
72611;SDS011;60655;52.182;4.474;2023-11-21T04:40:03;7.63;;;2.85;;
72611;SDS011;60655;52.182;4.474;2023-11-21T04:42:07;10.10;;;2.92;;
72611;SDS011;60655;52.182;4.474;2023-11-21T04:44:08;9.02;;;2.90;;
72611;SDS011;60655;52.182;4.474;2023-11-21T04:46:09;6.57;;;2.10;;
72611;SDS011;60655;52.182;4.474;2023-11-21T04:48:10;7.68;;;2.70;;
72611;SDS011;60655;52.182;4.474;2023-11-21T04:50:11;8.45;;;2.60;;
72611;SDS011;60655;52.182;4.474;2023-11-21T04:52:12;6.25;;;2.42;;
72611;SDS011;60655;52.182;4.474;2023-11-21T04:54:13;6.22;;;2.25;;
72611;SDS011;60655;52.182;4.474;2023-11-21T04:56:14;6.80;;;2.65;;
72611;SDS011;60655;52.182;4.474;2023-11-21T04:58:16;7.68;;;2.92;;
72611;SDS011;60655;52.182;4.474;2023-11-21T05:00:18;9.43;;;2.25;;
72611;SDS011;60655;52.182;4.474;2023-11-21T05:02:19;9.73;;;2.53;;
72611;SDS011;60655;52.182;4.474;2023-11-21T05:04:21;7.88;;;2.33;;
72611;SDS011;60655;52.182;4.474;2023-11-21T05:06:23;11.07;;;2.47;;
72611;SDS011;60655;52.182;4.474;2023-11-21T05:08:24;7.40;;;2.33;;
72611;SDS011;60655;52.182;4.474;2023-11-21T05:10:26;8.35;;;2.13;;
72611;SDS011;60655;52.182;4.474;2023-11-21T05:14:28;7.78;;;2.08;;
72611;SDS011;60655;52.182;4.474;2023-11-21T05:16:28;6.57;;;2.17;;
72611;SDS011;60655;52.182;4.474;2023-11-21T05:20:30;7.65;;;2.17;;
72611;SDS011;60655;52.182;4.474;2023-11-21T05:24:32;6.15;;;1.77;;
72611;SDS011;60655;52.182;4.474;2023-11-21T05:26:33;6.70;;;2.00;;
72611;SDS011;60655;52.182;4.474;2023-11-21T05:28:34;6.70;;;1.80;;
72611;SDS011;60655;52.182;4.474;2023-11-21T05:30:35;6.22;;;2.00;;
72611;SDS011;60655;52.182;4.474;2023-11-21T05:32:36;7.90;;;1.90;;
72611;SDS011;60655;52.182;4.474;2023-11-21T05:34:37;6.60;;;2.10;;
72611;SDS011;60655;52.182;4.474;2023-11-21T05:36:38;6.18;;;2.05;;
72611;SDS011;60655;52.182;4.474;2023-11-21T05:38:38;7.80;;;2.20;;
72611;SDS011;60655;52.182;4.474;2023-11-21T05:40:39;7.22;;;2.00;;
72611;SDS011;60655;52.182;4.474;2023-11-21T05:42:40;6.55;;;1.88;;
72611;SDS011;60655;52.182;4.474;2023-11-21T05:44:42;7.70;;;1.70;;
72611;SDS011;60655;52.182;4.474;2023-11-21T05:46:46;7.38;;;2.03;;
72611;SDS011;60655;52.182;4.474;2023-11-21T05:48:47;7.55;;;2.03;;
72611;SDS011;60655;52.182;4.474;2023-11-21T05:50:48;4.70;;;1.67;;
72611;SDS011;60655;52.182;4.474;2023-11-21T05:52:50;6.60;;;1.77;;
72611;SDS011;60655;52.182;4.474;2023-11-21T05:54:51;6.60;;;2.00;;
72611;SDS011;60655;52.182;4.474;2023-11-21T05:56:52;5.75;;;1.75;;
72611;SDS011;60655;52.182;4.474;2023-11-21T05:58:53;7.28;;;1.75;;
72611;SDS011;60655;52.182;4.474;2023-11-21T06:00:54;6.15;;;2.08;;
72611;SDS011;60655;52.182;4.474;2023-11-21T06:02:55;5.63;;;1.65;;
72611;SDS011;60655;52.182;4.474;2023-11-21T06:04:57;5.20;;;1.80;;
72611;SDS011;60655;52.182;4.474;2023-11-21T06:06:58;5.15;;;1.73;;
72611;SDS011;60655;52.182;4.474;2023-11-21T06:08:59;4.63;;;1.63;;
72611;SDS011;60655;52.182;4.474;2023-11-21T06:13:01;6.28;;;1.58;;
72611;SDS011;60655;52.182;4.474;2023-11-21T06:15:02;4.50;;;1.60;;
72611;SDS011;60655;52.182;4.474;2023-11-21T06:17:13;6.50;;;1.55;;
72611;SDS011;60655;52.182;4.474;2023-11-21T06:21:15;5.50;;;1.65;;
72611;SDS011;60655;52.182;4.474;2023-11-21T06:23:17;7.50;;;1.50;;
72611;SDS011;60655;52.182;4.474;2023-11-21T06:27:19;7.82;;;1.52;;
72611;SDS011;60655;52.182;4.474;2023-11-21T06:29:20;6.82;;;1.70;;
72611;SDS011;60655;52.182;4.474;2023-11-21T06:33:22;10.43;;;1.98;;
72611;SDS011;60655;52.182;4.474;2023-11-21T06:35:23;6.85;;;2.08;;
72611;SDS011;60655;52.182;4.474;2023-11-21T06:37:25;5.63;;;2.00;;
72611;SDS011;60655;52.182;4.474;2023-11-21T06:39:27;10.05;;;2.13;;
72611;SDS011;60655;52.182;4.474;2023-11-21T06:41:28;12.60;;;2.65;;
72611;SDS011;60655;52.182;4.474;2023-11-21T06:43:30;10.80;;;2.55;;
72611;SDS011;60655;52.182;4.474;2023-11-21T06:45:33;5.85;;;2.00;;
72611;SDS011;60655;52.182;4.474;2023-11-21T06:49:35;12.60;;;3.00;;
72611;SDS011;60655;52.182;4.474;2023-11-21T06:51:36;14.00;;;2.72;;
72611;SDS011;60655;52.182;4.474;2023-11-21T06:53:37;12.52;;;2.67;;
72611;SDS011;60655;52.182;4.474;2023-11-21T06:57:39;13.93;;;2.80;;
72611;SDS011;60655;52.182;4.474;2023-11-21T07:01:41;14.65;;;2.67;;
72611;SDS011;60655;52.182;4.474;2023-11-21T07:03:42;11.73;;;2.90;;
72611;SDS011;60655;52.182;4.474;2023-11-21T07:05:43;14.38;;;3.03;;
72611;SDS011;60655;52.182;4.474;2023-11-21T07:07:44;15.30;;;2.63;;
72611;SDS011;60655;52.182;4.474;2023-11-21T07:09:46;15.00;;;3.03;;
72611;SDS011;60655;52.182;4.474;2023-11-21T07:11:48;17.13;;;3.03;;
72611;SDS011;60655;52.182;4.474;2023-11-21T07:13:50;15.93;;;2.95;;
72611;SDS011;60655;52.182;4.474;2023-11-21T07:15:51;13.95;;;2.83;;
72611;SDS011;60655;52.182;4.474;2023-11-21T07:17:52;13.45;;;3.10;;
72611;SDS011;60655;52.182;4.474;2023-11-21T07:19:54;15.23;;;3.00;;
72611;SDS011;60655;52.182;4.474;2023-11-21T07:21:55;9.18;;;2.40;;
72611;SDS011;60655;52.182;4.474;2023-11-21T07:23:57;11.55;;;3.03;;
72611;SDS011;60655;52.182;4.474;2023-11-21T07:25:58;16.98;;;3.10;;
72611;SDS011;60655;52.182;4.474;2023-11-21T07:30:00;17.33;;;2.90;;
72611;SDS011;60655;52.182;4.474;2023-11-21T07:32:01;11.68;;;3.13;;
72611;SDS011;60655;52.182;4.474;2023-11-21T07:34:02;10.20;;;3.28;;
72611;SDS011;60655;52.182;4.474;2023-11-21T07:36:03;16.75;;;3.20;;
72611;SDS011;60655;52.182;4.474;2023-11-21T07:38:04;23.90;;;3.35;;
72611;SDS011;60655;52.182;4.474;2023-11-21T07:40:05;10.90;;;2.90;;
72611;SDS011;60655;52.182;4.474;2023-11-21T07:42:08;11.82;;;2.83;;
72611;SDS011;60655;52.182;4.474;2023-11-21T07:44:09;12.65;;;2.70;;
72611;SDS011;60655;52.182;4.474;2023-11-21T07:46:11;7.38;;;2.47;;
72611;SDS011;60655;52.182;4.474;2023-11-21T07:48:15;11.93;;;3.10;;
72611;SDS011;60655;52.182;4.474;2023-11-21T07:50:16;12.18;;;2.92;;
72611;SDS011;60655;52.182;4.474;2023-11-21T07:52:18;9.70;;;3.00;;
72611;SDS011;60655;52.182;4.474;2023-11-21T07:54:19;13.75;;;3.15;;
72611;SDS011;60655;52.182;4.474;2023-11-21T07:56:21;10.23;;;3.40;;
72611;SDS011;60655;52.182;4.474;2023-11-21T07:58:23;14.40;;;3.10;;
72611;SDS011;60655;52.182;4.474;2023-11-21T08:00:24;8.73;;;3.50;;
72611;SDS011;60655;52.182;4.474;2023-11-21T08:02:25;10.82;;;3.17;;
72611;SDS011;60655;52.182;4.474;2023-11-21T08:04:26;16.35;;;3.72;;
72611;SDS011;60655;52.182;4.474;2023-11-21T08:06:27;11.00;;;3.08;;
72611;SDS011;60655;52.182;4.474;2023-11-21T08:08:29;12.20;;;2.88;;
72611;SDS011;60655;52.182;4.474;2023-11-21T08:10:30;11.30;;;3.10;;
72611;SDS011;60655;52.182;4.474;2023-11-21T08:12:30;10.25;;;2.75;;
72611;SDS011;60655;52.182;4.474;2023-11-21T08:14:32;12.95;;;3.50;;
72611;SDS011;60655;52.182;4.474;2023-11-21T08:16:33;14.73;;;3.58;;
72611;SDS011;60655;52.182;4.474;2023-11-21T08:18:34;9.63;;;2.90;;
72611;SDS011;60655;52.182;4.474;2023-11-21T08:20:35;13.57;;;2.78;;
72611;SDS011;60655;52.182;4.474;2023-11-21T08:22:38;12.70;;;3.20;;
72611;SDS011;60655;52.182;4.474;2023-11-21T08:24:41;8.77;;;2.40;;
72611;SDS011;60655;52.182;4.474;2023-11-21T08:26:42;15.00;;;2.85;;
72611;SDS011;60655;52.182;4.474;2023-11-21T08:28:43;9.00;;;2.70;;
72611;SDS011;60655;52.182;4.474;2023-11-21T08:30:44;9.18;;;2.90;;
72611;SDS011;60655;52.182;4.474;2023-11-21T08:32:45;7.90;;;2.30;;
72611;SDS011;60655;52.182;4.474;2023-11-21T08:34:47;8.25;;;2.35;;
72611;SDS011;60655;52.182;4.474;2023-11-21T08:36:51;9.50;;;2.33;;
72611;SDS011;60655;52.182;4.474;2023-11-21T08:38:52;7.72;;;2.10;;
72611;SDS011;60655;52.182;4.474;2023-11-21T08:40:53;7.13;;;2.42;;
72611;SDS011;60655;52.182;4.474;2023-11-21T08:42:54;7.53;;;2.60;;
72611;SDS011;60655;52.182;4.474;2023-11-21T08:44:56;7.57;;;2.50;;
72611;SDS011;60655;52.182;4.474;2023-11-21T08:47:00;8.50;;;2.65;;
72611;SDS011;60655;52.182;4.474;2023-11-21T08:49:01;10.85;;;3.20;;
72611;SDS011;60655;52.182;4.474;2023-11-21T08:51:03;9.40;;;3.60;;
72611;SDS011;60655;52.182;4.474;2023-11-21T08:53:04;9.48;;;2.85;;
72611;SDS011;60655;52.182;4.474;2023-11-21T08:55:06;8.98;;;3.47;;
72611;SDS011;60655;52.182;4.474;2023-11-21T08:57:12;9.05;;;2.70;;
72611;SDS011;60655;52.182;4.474;2023-11-21T08:59:13;9.40;;;3.08;;
72611;SDS011;60655;52.182;4.474;2023-11-21T09:01:17;8.88;;;3.20;;
72611;SDS011;60655;52.182;4.474;2023-11-21T09:03:18;7.72;;;3.13;;
72611;SDS011;60655;52.182;4.474;2023-11-21T09:05:19;8.00;;;3.25;;
72611;SDS011;60655;52.182;4.474;2023-11-21T09:07:21;7.43;;;2.90;;
72611;SDS011;60655;52.182;4.474;2023-11-21T09:09:22;8.13;;;2.95;;
72611;SDS011;60655;52.182;4.474;2023-11-21T09:11:25;9.35;;;3.40;;
72611;SDS011;60655;52.182;4.474;2023-11-21T09:13:27;8.98;;;3.40;;
72611;SDS011;60655;52.182;4.474;2023-11-21T09:15:30;11.25;;;3.72;;
72611;SDS011;60655;52.182;4.474;2023-11-21T09:17:31;9.70;;;3.47;;
72611;SDS011;60655;52.182;4.474;2023-11-21T09:19:34;10.75;;;3.78;;
72611;SDS011;60655;52.182;4.474;2023-11-21T09:21:35;9.25;;;3.45;;
72611;SDS011;60655;52.182;4.474;2023-11-21T09:23:36;7.95;;;3.45;;
72611;SDS011;60655;52.182;4.474;2023-11-21T09:25:37;8.98;;;3.45;;
72611;SDS011;60655;52.182;4.474;2023-11-21T09:27:38;8.15;;;3.38;;
72611;SDS011;60655;52.182;4.474;2023-11-21T09:29:39;8.40;;;3.83;;
72611;SDS011;60655;52.182;4.474;2023-11-21T09:31:40;10.10;;;3.72;;
72611;SDS011;60655;52.182;4.474;2023-11-21T09:33:43;9.50;;;3.78;;
72611;SDS011;60655;52.182;4.474;2023-11-21T09:35:44;9.75;;;3.83;;
72611;SDS011;60655;52.182;4.474;2023-11-21T09:37:45;9.90;;;4.38;;
72611;SDS011;60655;52.182;4.474;2023-11-21T09:39:46;8.85;;;3.08;;
72611;SDS011;60655;52.182;4.474;2023-11-21T09:44:00;8.68;;;3.53;;
72611;SDS011;60655;52.182;4.474;2023-11-21T09:46:05;8.15;;;3.20;;
72611;SDS011;60655;52.182;4.474;2023-11-21T09:48:11;7.78;;;3.28;;
72611;SDS011;60655;52.182;4.474;2023-11-21T09:50:14;8.75;;;2.97;;
72611;SDS011;60655;52.182;4.474;2023-11-21T09:52:24;10.32;;;3.60;;
72611;SDS011;60655;52.182;4.474;2023-11-21T09:54:26;9.25;;;2.83;;
72611;SDS011;60655;52.182;4.474;2023-11-21T09:56:29;9.02;;;3.80;;
72611;SDS011;60655;52.182;4.474;2023-11-21T09:58:31;9.18;;;3.03;;
72611;SDS011;60655;52.182;4.474;2023-11-21T10:00:35;8.20;;;3.55;;
72611;SDS011;60655;52.182;4.474;2023-11-21T10:02:36;7.93;;;3.40;;
72611;SDS011;60655;52.182;4.474;2023-11-21T10:04:39;8.20;;;3.25;;
72611;SDS011;60655;52.182;4.474;2023-11-21T10:06:40;7.82;;;3.45;;
72611;SDS011;60655;52.182;4.474;2023-11-21T10:08:42;6.97;;;3.13;;
72611;SDS011;60655;52.182;4.474;2023-11-21T10:10:44;7.70;;;3.25;;
72611;SDS011;60655;52.182;4.474;2023-11-21T10:12:48;7.97;;;2.97;;
72611;SDS011;60655;52.182;4.474;2023-11-21T10:16:56;8.25;;;2.85;;
72611;SDS011;60655;52.182;4.474;2023-11-21T10:18:58;8.35;;;2.50;;
72611;SDS011;60655;52.182;4.474;2023-11-21T10:21:00;5.93;;;2.35;;
72611;SDS011;60655;52.182;4.474;2023-11-21T10:23:01;7.20;;;2.67;;
72611;SDS011;60655;52.182;4.474;2023-11-21T10:25:03;7.05;;;2.53;;
72611;SDS011;60655;52.182;4.474;2023-11-21T10:27:08;7.75;;;3.00;;
72611;SDS011;60655;52.182;4.474;2023-11-21T10:29:09;7.75;;;2.70;;
72611;SDS011;60655;52.182;4.474;2023-11-21T10:31:17;6.78;;;2.33;;
72611;SDS011;60655;52.182;4.474;2023-11-21T10:33:18;7.38;;;2.42;;
72611;SDS011;60655;52.182;4.474;2023-11-21T10:35:43;7.07;;;2.67;;
72611;SDS011;60655;52.182;4.474;2023-11-21T10:37:47;11.20;;;3.13;;
72611;SDS011;60655;52.182;4.474;2023-11-21T10:40:01;7.68;;;2.80;;
72611;SDS011;60655;52.182;4.474;2023-11-21T10:42:02;8.57;;;3.10;;
72611;SDS011;60655;52.182;4.474;2023-11-21T10:44:03;7.55;;;2.85;;
72611;SDS011;60655;52.182;4.474;2023-11-21T10:46:07;8.25;;;3.10;;
72611;SDS011;60655;52.182;4.474;2023-11-21T10:48:10;8.25;;;3.08;;
72611;SDS011;60655;52.182;4.474;2023-11-21T10:50:15;9.18;;;3.15;;
72611;SDS011;60655;52.182;4.474;2023-11-21T10:52:19;9.98;;;3.38;;
72611;SDS011;60655;52.182;4.474;2023-11-21T10:54:20;9.65;;;3.00;;
72611;SDS011;60655;52.182;4.474;2023-11-21T10:56:23;9.07;;;3.30;;
72611;SDS011;60655;52.182;4.474;2023-11-21T10:58:24;7.47;;;3.35;;
72611;SDS011;60655;52.182;4.474;2023-11-21T11:00:26;9.25;;;3.92;;
72611;SDS011;60655;52.182;4.474;2023-11-21T11:02:27;9.32;;;3.58;;
72611;SDS011;60655;52.182;4.474;2023-11-21T11:04:29;9.27;;;3.92;;
72611;SDS011;60655;52.182;4.474;2023-11-21T11:06:30;8.93;;;3.92;;
72611;SDS011;60655;52.182;4.474;2023-11-21T11:08:33;11.02;;;4.40;;
72611;SDS011;60655;52.182;4.474;2023-11-21T11:10:36;9.32;;;3.63;;
72611;SDS011;60655;52.182;4.474;2023-11-21T11:12:37;11.27;;;4.57;;
72611;SDS011;60655;52.182;4.474;2023-11-21T11:14:40;9.70;;;3.97;;
72611;SDS011;60655;52.182;4.474;2023-11-21T11:16:41;8.65;;;4.00;;
72611;SDS011;60655;52.182;4.474;2023-11-21T11:18:43;10.63;;;4.15;;
72611;SDS011;60655;52.182;4.474;2023-11-21T11:20:45;10.05;;;4.38;;
72611;SDS011;60655;52.182;4.474;2023-11-21T11:28:16;11.13;;;4.82;;
72611;SDS011;60655;52.182;4.474;2023-11-21T11:30:28;10.80;;;4.38;;
72611;SDS011;60655;52.182;4.474;2023-11-21T11:32:43;12.10;;;4.47;;
72611;SDS011;60655;52.182;4.474;2023-11-21T11:34:59;10.30;;;4.40;;
72611;SDS011;60655;52.182;4.474;2023-11-21T11:37:05;12.75;;;4.45;;
72611;SDS011;60655;52.182;4.474;2023-11-21T11:41:32;8.57;;;3.45;;
72611;SDS011;60655;52.182;4.474;2023-11-21T11:43:35;7.28;;;3.35;;
72611;SDS011;60655;52.182;4.474;2023-11-21T11:45:44;10.93;;;3.65;;
72611;SDS011;60655;52.182;4.474;2023-11-21T11:47:49;10.07;;;4.60;;
72611;SDS011;60655;52.182;4.474;2023-11-21T11:50:01;8.88;;;3.97;;
72611;SDS011;60655;52.182;4.474;2023-11-21T11:52:39;10.13;;;3.78;;
72611;SDS011;60655;52.182;4.474;2023-11-21T11:54:42;10.70;;;4.25;;
72611;SDS011;60655;52.182;4.474;2023-11-21T11:56:44;10.35;;;4.25;;
72611;SDS011;60655;52.182;4.474;2023-11-21T11:58:48;10.95;;;4.43;;
72611;SDS011;60655;52.182;4.474;2023-11-21T12:00:49;9.27;;;4.60;;
72611;SDS011;60655;52.182;4.474;2023-11-21T12:02:55;11.80;;;4.38;;
72611;SDS011;60655;52.182;4.474;2023-11-21T12:05:10;10.77;;;4.47;;
72611;SDS011;60655;52.182;4.474;2023-11-21T12:07:15;9.60;;;4.47;;
72611;SDS011;60655;52.182;4.474;2023-11-21T12:09:19;12.15;;;4.47;;
72611;SDS011;60655;52.182;4.474;2023-11-21T12:11:24;10.23;;;4.53;;
72611;SDS011;60655;52.182;4.474;2023-11-21T12:13:35;11.77;;;4.82;;
72611;SDS011;60655;52.182;4.474;2023-11-21T12:15:38;12.07;;;4.93;;
72611;SDS011;60655;52.182;4.474;2023-11-21T12:17:42;10.02;;;5.03;;
72611;SDS011;60655;52.182;4.474;2023-11-21T12:19:44;10.27;;;4.80;;
72611;SDS011;60655;52.182;4.474;2023-11-21T12:21:45;12.05;;;4.60;;
72611;SDS011;60655;52.182;4.474;2023-11-21T12:23:46;9.48;;;4.78;;
72611;SDS011;60655;52.182;4.474;2023-11-21T12:25:48;11.02;;;4.57;;
72611;SDS011;60655;52.182;4.474;2023-11-21T12:27:50;9.55;;;4.18;;
72611;SDS011;60655;52.182;4.474;2023-11-21T12:29:54;10.43;;;4.45;;
72611;SDS011;60655;52.182;4.474;2023-11-21T12:31:56;13.02;;;4.45;;
72611;SDS011;60655;52.182;4.474;2023-11-21T12:34:00;12.07;;;4.72;;
72611;SDS011;60655;52.182;4.474;2023-11-21T12:36:01;9.60;;;4.18;;
72611;SDS011;60655;52.182;4.474;2023-11-21T12:38:02;9.13;;;4.15;;
72611;SDS011;60655;52.182;4.474;2023-11-21T12:40:05;10.38;;;4.63;;
72611;SDS011;60655;52.182;4.474;2023-11-21T12:42:08;10.40;;;4.53;;
72611;SDS011;60655;52.182;4.474;2023-11-21T12:44:12;10.80;;;4.50;;
72611;SDS011;60655;52.182;4.474;2023-11-21T12:46:13;10.05;;;4.40;;
72611;SDS011;60655;52.182;4.474;2023-11-21T12:48:15;10.63;;;3.90;;
72611;SDS011;60655;52.182;4.474;2023-11-21T12:50:23;9.05;;;3.70;;
72611;SDS011;60655;52.182;4.474;2023-11-21T12:52:29;9.07;;;3.63;;
72611;SDS011;60655;52.182;4.474;2023-11-21T12:54:29;9.85;;;4.32;;
72611;SDS011;60655;52.182;4.474;2023-11-21T12:56:30;10.98;;;4.07;;
72611;SDS011;60655;52.182;4.474;2023-11-21T12:58:31;8.70;;;4.10;;
72611;SDS011;60655;52.182;4.474;2023-11-21T13:00:38;10.95;;;4.47;;
72611;SDS011;60655;52.182;4.474;2023-11-21T13:02:42;11.07;;;4.20;;
72611;SDS011;60655;52.182;4.474;2023-11-21T13:04:43;9.77;;;3.58;;
72611;SDS011;60655;52.182;4.474;2023-11-21T13:06:44;8.75;;;3.28;;
72611;SDS011;60655;52.182;4.474;2023-11-21T13:08:46;9.93;;;3.83;;
72611;SDS011;60655;52.182;4.474;2023-11-21T13:10:48;8.35;;;3.45;;
72611;SDS011;60655;52.182;4.474;2023-11-21T13:12:51;9.23;;;3.47;;
72611;SDS011;60655;52.182;4.474;2023-11-21T13:14:53;9.38;;;3.40;;
72611;SDS011;60655;52.182;4.474;2023-11-21T13:16:55;8.15;;;3.13;;
72611;SDS011;60655;52.182;4.474;2023-11-21T13:18:56;9.13;;;3.88;;
72611;SDS011;60655;52.182;4.474;2023-11-21T13:21:05;9.68;;;4.05;;
72611;SDS011;60655;52.182;4.474;2023-11-21T13:23:17;8.80;;;3.53;;
72611;SDS011;60655;52.182;4.474;2023-11-21T13:25:18;9.90;;;3.58;;
72611;SDS011;60655;52.182;4.474;2023-11-21T13:27:20;10.55;;;3.80;;
72611;SDS011;60655;52.182;4.474;2023-11-21T13:29:22;9.68;;;3.60;;
72611;SDS011;60655;52.182;4.474;2023-11-21T13:31:23;8.38;;;3.35;;
72611;SDS011;60655;52.182;4.474;2023-11-21T13:33:31;9.15;;;3.55;;
72611;SDS011;60655;52.182;4.474;2023-11-21T13:35:34;7.97;;;3.50;;
72611;SDS011;60655;52.182;4.474;2023-11-21T13:37:43;10.75;;;3.67;;
72611;SDS011;60655;52.182;4.474;2023-11-21T13:39:46;11.57;;;3.47;;
72611;SDS011;60655;52.182;4.474;2023-11-21T13:41:50;9.10;;;3.55;;
72611;SDS011;60655;52.182;4.474;2023-11-21T13:43:55;10.65;;;3.90;;
72611;SDS011;60655;52.182;4.474;2023-11-21T13:46:06;8.77;;;3.50;;
72611;SDS011;60655;52.182;4.474;2023-11-21T13:48:22;8.45;;;3.50;;
72611;SDS011;60655;52.182;4.474;2023-11-21T13:50:32;10.80;;;4.95;;
72611;SDS011;60655;52.182;4.474;2023-11-21T13:52:36;11.63;;;5.13;;